createdAt,value
2023-03-23T15:57:52.220Z,1.80
2023-03-23T16:00:20.282Z,1.80
2023-03-23T16:02:48.592Z,1.50
2023-03-23T16:05:16.124Z,1.87
2023-03-23T16:07:43.456Z,1.37
2023-03-23T16:10:21.464Z,1.70
2023-03-23T16:12:48.833Z,1.50
2023-03-23T16:15:16.401Z,1.57
2023-03-23T16:17:43.893Z,1.53
2023-03-23T16:20:15.496Z,1.40
2023-03-23T16:22:42.880Z,1.40
2023-03-23T16:25:11.312Z,1.83
2023-03-23T16:27:39.672Z,1.43
2023-03-23T16:30:14.631Z,1.60
2023-03-23T16:32:45.573Z,1.70
2023-03-23T16:35:13.444Z,2.00
2023-03-23T16:37:42.396Z,2.70
2023-03-23T16:40:11.322Z,1.67
2023-03-23T16:42:38.783Z,1.67
2023-03-23T16:45:06.969Z,1.73
2023-03-23T16:47:34.308Z,1.80
2023-03-23T16:50:01.703Z,1.93
2023-03-23T16:52:29.125Z,1.97
2023-03-23T16:54:56.628Z,1.83
2023-03-23T16:57:24.060Z,1.90
2023-03-23T16:59:51.465Z,2.00
2023-03-23T17:02:18.871Z,1.97
2023-03-23T17:04:46.702Z,2.00
2023-03-23T17:07:14.577Z,1.90
2023-03-23T17:09:42.697Z,2.07
2023-03-23T17:12:10.366Z,1.60
2023-03-23T17:14:37.758Z,2.03
2023-03-23T17:17:05.630Z,1.90
2023-03-23T17:19:33.023Z,1.80
2023-03-23T17:22:00.804Z,1.80
2023-03-23T17:24:28.199Z,1.90
2023-03-23T17:26:56.306Z,2.03
2023-03-23T17:29:24.078Z,2.00
2023-03-23T17:31:51.907Z,2.10
2023-03-23T17:34:19.900Z,2.10
2023-03-23T17:36:47.263Z,2.13
2023-03-23T17:39:14.643Z,1.97
2023-03-23T17:41:42.013Z,2.47
2023-03-23T17:44:09.480Z,2.20
2023-03-23T17:46:36.922Z,2.80
2023-03-23T17:49:04.357Z,2.30
2023-03-23T17:51:31.744Z,2.37
2023-03-23T17:53:59.124Z,2.20
2023-03-23T17:56:26.653Z,2.63
2023-03-23T17:58:54.095Z,2.43
2023-03-23T18:01:21.637Z,2.33
2023-03-23T18:03:48.952Z,2.47
2023-03-23T18:06:16.485Z,2.60
2023-03-23T18:08:43.919Z,2.80
2023-03-23T18:11:11.960Z,2.67
2023-03-23T18:13:39.330Z,2.40
2023-03-23T18:16:07.224Z,2.50
2023-03-23T18:18:34.918Z,2.87
2023-03-23T18:21:04.204Z,2.50
2023-03-23T18:23:33.889Z,2.60
2023-03-23T18:26:01.645Z,2.70
2023-03-23T18:28:29.009Z,2.90
2023-03-23T18:30:57.875Z,2.77
2023-03-23T18:33:25.550Z,2.50
2023-03-23T18:35:54.464Z,2.90
2023-03-23T18:38:21.850Z,3.30
2023-03-23T18:40:49.229Z,2.83
2023-03-23T18:43:16.647Z,2.57
2023-03-23T18:45:45.931Z,2.50
2023-03-23T18:48:13.643Z,3.00
2023-03-23T18:50:41.133Z,2.70
2023-03-23T18:53:08.637Z,2.50
2023-03-23T18:55:36.025Z,3.40
2023-03-23T18:58:04.180Z,2.80
2023-03-23T19:00:33.204Z,2.57
2023-03-23T19:03:01.065Z,2.50
2023-03-23T19:05:28.490Z,2.77
2023-03-23T19:07:56.256Z,2.70
2023-03-23T19:10:23.645Z,2.33
2023-03-23T19:12:51.315Z,2.80
2023-03-23T19:15:18.953Z,2.57
2023-03-23T19:17:46.566Z,3.13
2023-03-23T19:20:22.515Z,2.83
2023-03-23T19:22:43.242Z,3.37
2023-03-23T19:25:11.090Z,2.63
2023-03-23T19:28:03.681Z,2.90
2023-03-23T19:30:07.901Z,3.30
2023-03-23T19:32:35.365Z,3.20
2023-03-23T19:35:03.486Z,2.73
2023-03-23T19:37:34.699Z,3.23
2023-03-23T19:40:06.662Z,2.70
2023-03-23T19:42:30.612Z,3.40
2023-03-23T19:44:58.546Z,2.63
2023-03-23T19:47:26.025Z,2.67
2023-03-23T19:49:55.706Z,2.70
2023-03-23T19:52:23.444Z,2.23
2023-03-23T19:54:50.836Z,2.73
2023-03-23T19:57:18.504Z,3.10
2023-03-23T19:59:45.928Z,3.13
2023-03-23T20:02:13.656Z,3.30
2023-03-23T20:04:41.414Z,3.07
2023-03-23T20:07:08.929Z,3.10
2023-03-23T20:09:38.245Z,2.93
2023-03-23T20:12:06.301Z,3.40
2023-03-23T20:14:34.764Z,3.73
2023-03-23T20:17:02.494Z,3.33
2023-03-23T20:19:29.896Z,3.47
2023-03-23T20:21:57.266Z,3.50
2023-03-23T20:24:24.967Z,3.37
2023-03-23T20:26:52.731Z,3.10
2023-03-23T20:29:20.405Z,3.23
2023-03-23T20:31:47.791Z,3.67
2023-03-23T20:34:17.797Z,4.07
2023-03-23T20:36:45.857Z,3.70
2023-03-23T20:39:14.788Z,3.60
2023-03-23T20:41:43.569Z,3.93
2023-03-23T20:44:15.330Z,3.30
2023-03-23T20:46:43.084Z,3.17
2023-03-23T20:49:10.511Z,3.80
2023-03-23T20:51:37.871Z,3.13
2023-03-23T20:54:05.738Z,3.63
2023-03-23T20:56:33.399Z,3.50
2023-03-23T20:59:01.229Z,3.77
2023-03-23T21:01:28.746Z,3.73
2023-03-23T21:03:57.657Z,3.63
2023-03-23T21:06:26.679Z,3.40
2023-03-23T21:08:54.068Z,3.40
2023-03-23T21:11:22.929Z,3.50
2023-03-23T21:13:50.837Z,3.70
2023-03-23T21:16:18.980Z,4.00
2023-03-23T21:18:47.674Z,3.60
2023-03-23T21:21:17.678Z,3.70
2023-03-23T21:23:47.710Z,4.27
2023-03-23T21:26:16.781Z,4.10
2023-03-23T21:28:45.500Z,3.83
2023-03-23T21:31:13.551Z,4.30
2023-03-23T21:33:41.587Z,4.43
2023-03-23T21:36:09.239Z,4.43
2023-03-23T21:38:38.104Z,4.10
2023-03-23T21:41:09.699Z,4.83
2023-03-23T21:43:38.132Z,4.83
2023-03-23T21:46:07.836Z,4.70
2023-03-23T21:48:37.938Z,4.93
2023-03-23T21:51:06.717Z,4.97
2023-03-23T21:53:35.740Z,4.77
2023-03-23T21:56:03.703Z,4.63
2023-03-23T21:58:31.424Z,5.03
2023-03-23T22:01:00.488Z,5.30
2023-03-23T22:03:29.880Z,4.90
2023-03-23T22:05:57.303Z,4.90
2023-03-23T22:08:26.077Z,4.97
2023-03-23T22:11:00.725Z,4.80
2023-03-23T22:13:22.549Z,5.53
2023-03-23T22:15:51.364Z,5.50
2023-03-23T22:18:18.831Z,5.30
2023-03-23T22:20:46.420Z,5.60
2023-03-23T22:23:13.933Z,5.10
2023-03-23T22:25:41.692Z,5.50
2023-03-23T22:28:09.334Z,5.30
2023-03-23T22:30:36.674Z,5.13
2023-03-23T22:33:04.481Z,4.77
2023-03-23T22:35:33.547Z,4.93
2023-03-23T22:38:02.886Z,5.97
2023-03-23T22:40:30.962Z,5.07
2023-03-23T22:42:58.509Z,5.63
2023-03-23T22:45:27.246Z,5.50
2023-03-23T22:47:54.759Z,5.70
2023-03-23T22:50:23.996Z,5.33
2023-03-23T22:52:51.424Z,5.17
2023-03-23T22:55:18.846Z,6.20
2023-03-23T22:57:46.280Z,5.77
2023-03-23T23:00:14.527Z,5.50
2023-03-23T23:02:42.930Z,5.73
2023-03-23T23:05:11.461Z,5.60
2023-03-23T23:07:39.223Z,5.30
2023-03-23T23:10:07.310Z,4.87
2023-03-23T23:12:36.549Z,5.37
2023-03-23T23:15:05.594Z,5.10
2023-03-23T23:17:34.321Z,5.87
2023-03-23T23:20:03.358Z,5.63
2023-03-23T23:22:31.226Z,5.67
2023-03-23T23:24:58.644Z,5.90
2023-03-23T23:27:26.199Z,5.97
2023-03-23T23:29:53.658Z,5.17
2023-03-23T23:32:21.251Z,6.50
2023-03-23T23:34:48.636Z,5.70
2023-03-23T23:37:16.329Z,5.60
2023-03-23T23:39:43.830Z,6.37
2023-03-23T23:42:12.497Z,5.80
2023-03-23T23:44:40.450Z,6.80
2023-03-23T23:47:08.021Z,6.20
2023-03-23T23:49:35.416Z,6.53
2023-03-23T23:52:09.081Z,6.80
2023-03-23T23:54:37.527Z,6.23
2023-03-23T23:57:05.878Z,5.90
2023-03-23T23:59:33.252Z,7.10
